Time;durP1;ratioP1;P1;durP2;ratioP2;P2;SDS_P1;SDS_P2;PMS_P1;PMS_P2;Temp;Humidity;BMP_temperature;BMP_pressure;BME280_temperature;BME280_humidity;BME280_pressure;Samples;Min_cycle;Max_cycle;Signal;HPM_P1;HPM_P2
2023/05/15 00:00:43;;;;;;;31.50;16.20;;;;;;;11.73;99.36;101195.41;105851;1262;61603;-94
2023/05/15 00:03:11;;;;;;;31.20;15.80;;;;;;;11.72;98.93;101196.17;105908;1262;61799;-93
2023/05/15 00:05:39;;;;;;;33.60;16.60;;;;;;;11.69;98.67;101197.18;106173;1262;74225;-95
2023/05/15 00:08:07;;;;;;;30.10;14.80;;;;;;;11.66;98.39;101193.48;106525;1262;61598;-95
2023/05/15 00:10:34;;;;;;;29.30;15.10;;;;;;;11.61;98.03;101189.91;107353;1262;74742;-94
2023/05/15 00:13:01;;;;;;;25.00;14.90;;;;;;;11.57;98.22;101187.15;108439;1261;62905;-96
2023/05/15 00:15:29;;;;;;;25.90;13.90;;;;;;;11.57;98.30;101186.98;108598;1261;61047;-94
2023/05/15 00:17:56;;;;;;;30.50;15.30;;;;;;;11.58;98.38;101188.66;108968;1262;74481;-93
2023/05/15 00:20:24;;;;;;;28.60;16.10;;;;;;;11.59;98.40;101185.84;108907;1261;65045;-94
2023/05/15 00:22:51;;;;;;;20.00;13.40;;;;;;;11.60;98.50;101184.55;108140;1262;73624;-94
2023/05/15 00:25:18;;;;;;;26.60;14.00;;;;;;;11.62;98.44;101186.71;108460;1261;62795;-92
2023/05/15 00:27:45;;;;;;;27.50;14.80;;;;;;;11.62;98.41;101183.40;108219;1262;61273;-92
2023/05/15 00:30:13;;;;;;;26.40;14.00;;;;;;;11.60;98.39;101180.14;106849;1261;73649;-94
2023/05/15 00:32:40;;;;;;;22.30;13.20;;;;;;;11.57;98.40;101183.83;105923;1261;64952;-93
2023/05/15 00:35:08;;;;;;;21.40;12.30;;;;;;;11.52;98.43;101184.27;106065;1262;74134;-94
2023/05/15 00:37:35;;;;;;;23.40;12.10;;;;;;;11.49;98.54;101183.77;106294;1262;63003;-94
2023/05/15 00:40:03;;;;;;;24.60;12.90;;;;;;;11.49;98.78;101187.99;105969;1262;60949;-94
2023/05/15 00:42:31;;;;;;;17.90;11.80;;;;;;;11.49;98.85;101190.41;106102;1262;73959;-95
2023/05/15 00:44:59;;;;;;;24.50;13.50;;;;;;;11.50;98.73;101190.55;106228;1263;66044;-93
2023/05/15 00:47:29;;;;;;;25.40;12.80;;;;;;;11.47;98.53;101187.58;106406;1266;73644;-94
2023/05/15 00:49:56;;;;;;;29.30;14.50;;;;;;;11.42;98.53;101187.45;107234;1262;62584;-92
2023/05/15 00:52:23;;;;;;;25.20;14.10;;;;;;;11.38;98.67;101182.79;108682;1262;61249;-91
2023/05/15 00:54:50;;;;;;;21.90;13.20;;;;;;;11.34;98.60;101186.13;108811;1261;74181;-91
2023/05/15 00:57:18;;;;;;;21.30;13.20;;;;;;;11.30;98.83;101182.86;107955;1262;64740;-93
2023/05/15 00:59:45;;;;;;;32.30;13.00;;;;;;;11.27;99.20;101178.83;107578;1262;74527;-93
2023/05/15 01:02:13;;;;;;;21.30;12.70;;;;;;;11.24;99.60;101182.15;108761;1262;62772;-93
2023/05/15 01:04:40;;;;;;;22.60;12.40;;;;;;;11.23;99.87;101180.98;108907;1262;60889;-92
2023/05/15 01:07:08;;;;;;;23.60;13.00;;;;;;;11.22;99.87;101181.91;108863;1261;74082;-92
2023/05/15 01:09:35;;;;;;;23.10;12.10;;;;;;;11.22;99.74;101179.98;108770;1261;64742;-91
2023/05/15 01:12:03;;;;;;;26.90;13.60;;;;;;;11.21;99.71;101175.82;108001;1262;73314;-93
2023/05/15 01:14:31;;;;;;;24.90;13.40;;;;;;;11.22;99.59;101175.58;106843;1267;62650;-94
2023/05/15 01:16:58;;;;;;;22.90;13.90;;;;;;;11.22;99.47;101176.61;106367;1267;59969;-93
2023/05/15 01:19:26;;;;;;;24.70;12.90;;;;;;;11.21;99.28;101176.87;106720;1262;75137;-95
2023/05/15 01:22:16;;;;;;;24.20;13.70;;;;;;;11.20;99.12;101176.37;106310;1262;65802;-93
2023/05/15 01:25:11;;;;;;;24.50;13.70;;;;;;;11.19;99.14;101171.20;105796;1265;75016;-93
2023/05/15 01:27:51;;;;;;;24.90;13.00;;;;;;;11.16;99.40;101168.89;105444;1262;64430;-94
2023/05/15 01:30:27;;;;;;;22.00;12.70;;;;;;;11.14;99.57;101167.27;105518;1267;60739;-95
2023/05/15 01:33:16;;;;;;;19.80;12.00;;;;;;;11.14;99.69;101169.19;105526;1268;75456;-92
2023/05/15 01:35:54;;;;;;;22.90;12.50;;;;;;;11.13;99.67;101164.50;106898;1262;65671;-94
2023/05/15 01:38:38;;;;;;;20.20;12.50;;;;;;;11.12;99.37;101167.02;107975;1262;73389;-93
2023/05/15 01:41:18;;;;;;;24.80;13.50;;;;;;;11.11;99.63;101163.55;105657;1263;61023;-93
2023/05/15 01:43:48;;;;;;;28.70;14.10;;;;;;;11.12;99.63;101166.48;105639;1262;62112;-93
2023/05/15 01:46:16;;;;;;;26.70;13.40;;;;;;;11.13;99.37;101169.80;105612;1262;74116;-93
2023/05/15 01:48:43;;;;;;;23.00;13.40;;;;;;;11.09;99.04;101170.67;105796;1262;64098;-90
2023/05/15 01:51:12;;;;;;;27.90;14.40;;;;;;;11.06;98.98;101170.69;105736;1265;74943;-94
2023/05/15 01:53:40;;;;;;;21.50;12.60;;;;;;;11.02;99.18;101169.84;105834;1262;64390;-91
2023/05/15 01:56:12;;;;;;;18.80;12.90;;;;;;;10.99;99.50;101171.90;106946;1262;60982;-92
2023/05/15 01:58:39;;;;;;;16.00;12.20;;;;;;;10.95;99.50;101172.98;106476;1262;75013;-94
2023/05/15 02:01:07;;;;;;;18.70;12.10;;;;;;;10.91;99.75;101172.86;105747;1267;65719;-93
2023/05/15 02:03:34;;;;;;;20.50;12.70;;;;;;;10.88;100.00;101173.38;105388;1267;73711;-94
2023/05/15 02:06:02;;;;;;;26.50;13.20;;;;;;;10.86;100.00;101176.62;105677;1262;63095;-94
2023/05/15 02:08:29;;;;;;;19.40;12.30;;;;;;;10.87;100.00;101173.09;106353;1262;60899;-92
2023/05/15 02:10:57;;;;;;;23.60;13.40;;;;;;;10.89;100.00;101175.27;105976;1262;75152;-93
2023/05/15 02:13:24;;;;;;;24.60;13.10;;;;;;;10.90;100.00;101171.17;105924;1266;65686;-92
2023/05/15 02:15:51;;;;;;;21.10;10.50;;;;;;;10.89;100.00;101169.80;105934;1265;74860;-93
2023/05/15 02:18:18;;;;;;;27.10;12.50;;;;;;;10.88;100.00;101170.06;107711;1265;63445;-92
2023/05/15 02:20:45;;;;;;;25.30;13.30;;;;;;;10.90;100.00;101165.41;107227;1266;61183;-92
2023/05/15 02:23:14;;;;;;;29.60;14.60;;;;;;;10.92;100.00;101168.40;105843;1268;75921;-92
2023/05/15 02:26:00;;;;;;;26.70;12.90;;;;;;;10.94;100.00;101168.65;105626;1262;65981;-92
2023/05/15 02:28:35;;;;;;;26.30;13.20;;;;;;;10.95;100.00;101171.40;106041;1262;74754;-91
2023/05/15 02:31:10;;;;;;;24.50;12.70;;;;;;;10.90;100.00;101171.66;106332;1262;61398;-92
2023/05/15 02:33:44;;;;;;;18.30;10.70;;;;;;;10.81;100.00;101169.19;106551;1262;62085;-93
2023/05/15 02:36:13;;;;;;;;;;;;;;;10.77;100.00;101169.75;106208;1262;74713;-91
2023/05/15 02:38:48;;;;;;;20.50;11.70;;;;;;;10.76;100.00;101158.59;106361;1261;64654;-91
2023/05/15 02:41:15;;;;;;;17.00;11.20;;;;;;;10.76;100.00;101155.61;107675;1262;74047;-91
2023/05/15 02:43:42;;;;;;;24.10;11.90;;;;;;;10.80;100.00;101156.97;107228;1263;62843;-89
2023/05/15 02:46:09;;;;;;;17.10;10.70;;;;;;;10.84;100.00;101153.27;106104;1262;62306;-91
2023/05/15 02:48:38;;;;;;;20.10;11.60;;;;;;;10.89;100.00;101154.41;106163;1267;76008;-90
2023/05/15 02:51:05;;;;;;;22.00;11.00;;;;;;;10.94;100.00;101150.30;106007;1262;65645;-93
2023/05/15 02:53:38;;;;;;;13.70;9.50;;;;;;;11.01;100.00;101146.11;105542;1262;74487;-93
2023/05/15 02:56:06;;;;;;;18.30;11.10;;;;;;;11.07;100.00;101153.65;105670;1268;62490;-94
2023/05/15 02:58:33;;;;;;;22.30;11.60;;;;;;;11.11;100.00;101152.71;105760;1262;61045;-92
2023/05/15 03:01:00;;;;;;;18.00;11.40;;;;;;;11.17;100.00;101155.17;107949;1262;76340;-92
2023/05/15 03:03:27;;;;;;;17.80;10.10;;;;;;;11.24;99.84;101155.17;106615;1267;64754;-94
2023/05/15 03:05:54;;;;;;;20.20;11.50;;;;;;;11.28;99.47;101154.97;105653;1262;74621;-93
2023/05/15 03:08:21;;;;;;;24.10;11.30;;;;;;;11.30;99.21;101156.63;105730;1267;62619;-90
2023/05/15 03:10:52;;;;;;;19.70;12.30;;;;;;;11.29;99.18;101155.25;105664;1262;62313;-91
2023/05/15 03:13:19;;;;;;;15.80;11.10;;;;;;;11.28;99.64;101147.77;105680;1263;74604;-93
2023/05/15 03:15:46;;;;;;;17.70;11.00;;;;;;;11.31;99.92;101152.69;105536;1262;64879;-92
2023/05/15 03:18:13;;;;;;;23.20;10.90;;;;;;;11.35;99.99;101150.18;105766;1263;73629;-92
2023/05/15 03:20:45;;;;;;;20.60;10.20;;;;;;;11.44;100.00;101154.11;105636;1267;62910;-93
2023/05/15 03:23:13;;;;;;;17.70;10.00;;;;;;;11.55;99.78;101152.63;106322;1262;62082;-91
2023/05/15 03:25:40;;;;;;;17.80;10.70;;;;;;;11.66;99.15;101154.64;105930;1262;75872;-91
2023/05/15 03:28:07;;;;;;;24.40;9.90;;;;;;;11.78;98.99;101159.55;107289;1262;66034;-91
2023/05/15 03:30:34;;;;;;;17.40;9.00;;;;;;;11.90;98.79;101159.77;107779;1262;73447;-95
2023/05/15 03:33:05;;;;;;;21.60;10.80;;;;;;;12.02;98.31;101167.00;106688;1262;61271;-95
2023/05/15 03:36:10;;;;;;;16.80;9.80;;;;;;;12.13;97.80;101180.21;106725;1262;61002;-94
2023/05/15 03:38:38;;;;;;;16.50;9.00;;;;;;;12.22;96.94;101183.02;106893;1262;74512;-96
2023/05/15 03:41:11;;;;;;;16.60;9.30;;;;;;;12.31;95.58;101189.86;107698;1261;65009;-94
2023/05/15 03:43:39;;;;;;;14.80;9.40;;;;;;;12.40;94.90;101188.09;108980;1262;74088;-94
2023/05/15 03:46:17;;;;;;;22.50;8.70;;;;;;;12.52;94.66;101185.48;108980;1261;62708;-95
2023/05/15 03:48:45;;;;;;;16.40;9.00;;;;;;;12.63;94.69;101179.55;108970;1261;61276;-93
2023/05/15 03:51:12;;;;;;;17.80;9.50;;;;;;;12.76;94.88;101178.81;109029;1262;73642;-96
2023/05/15 03:53:40;;;;;;;14.60;7.70;;;;;;;12.89;95.14;101184.13;108940;1262;64742;-93
2023/05/15 03:56:08;;;;;;;23.10;8.80;;;;;;;13.02;94.71;101180.89;107423;1263;73502;-96
2023/05/15 03:58:35;;;;;;;23.80;9.30;;;;;;;13.15;94.25;101180.10;107056;1267;62098;-94
2023/05/15 04:01:02;;;;;;;17.80;10.00;;;;;;;13.29;94.21;101183.10;106751;1262;61290;-95
2023/05/15 04:03:29;;;;;;;33.40;11.00;;;;;;;13.43;94.35;101183.14;106141;1262;74958;-94
2023/05/15 04:05:57;;;;;;;29.00;10.00;;;;;;;13.58;94.77;101182.34;106436;1262;63962;-93
2023/05/15 04:08:24;;;;;;;19.50;10.60;;;;;;;13.73;95.10;101183.52;106612;1262;73520;-94
2023/05/15 04:10:52;;;;;;;18.90;10.70;;;;;;;13.86;94.11;101185.16;106764;1262;60436;-94
2023/05/15 04:13:19;;;;;;;21.40;11.30;;;;;;;13.98;93.54;101192.09;106793;1267;60952;-94
2023/05/15 04:15:47;;;;;;;26.10;10.80;;;;;;;14.18;93.86;101194.80;107529;1264;73963;-95
2023/05/15 04:18:20;;;;;;;24.40;11.10;;;;;;;14.44;94.00;101194.52;107142;1264;66181;-95
2023/05/15 04:20:49;;;;;;;16.10;8.40;;;;;;;14.74;93.93;101191.14;107108;1263;74130;-95
2023/05/15 04:23:17;;;;;;;32.10;11.10;;;;;;;15.12;93.81;101184.64;106739;1264;62883;-94
2023/05/15 04:25:45;;;;;;;29.80;10.60;;;;;;;15.60;93.91;101182.77;108036;1271;61424;-95
2023/05/15 04:28:13;;;;;;;21.40;9.60;;;;;;;16.17;93.08;101185.55;108777;1266;74880;-94
2023/05/15 04:30:44;;;;;;;22.20;10.70;;;;;;;16.74;91.73;101183.19;108541;1265;64316;-95
2023/05/15 04:33:12;;;;;;;26.20;10.40;;;;;;;17.39;89.92;101184.98;107031;1267;73652;-96
2023/05/15 04:35:40;;;;;;;34.20;11.60;;;;;;;17.96;88.12;101186.23;106704;1269;61253;-95
2023/05/15 04:38:07;;;;;;;17.50;9.90;;;;;;;18.55;85.79;101191.78;106530;1271;62200;-95
2023/05/15 04:40:39;;;;;;;21.80;10.10;;;;;;;19.18;82.69;101188.37;106615;1266;74957;-96
2023/05/15 04:43:08;;;;;;;28.40;11.10;;;;;;;19.81;80.19;101198.80;106519;1273;65990;-95
2023/05/15 04:45:36;;;;;;;19.70;10.40;;;;;;;20.32;77.60;101202.34;106383;1270;73742;-94
2023/05/15 04:48:09;;;;;;;30.40;11.10;;;;;;;20.81;73.63;101205.83;106874;1266;61046;-94
2023/05/15 04:50:37;;;;;;;22.30;10.70;;;;;;;21.26;71.39;101201.91;107400;1268;60369;-95
2023/05/15 04:53:07;;;;;;;20.20;10.30;;;;;;;21.60;67.29;101197.23;107265;1268;74717;-96
2023/05/15 04:55:35;;;;;;;19.90;11.00;;;;;;;21.91;60.80;101195.59;106611;1267;63153;-96
2023/05/15 04:58:05;;;;;;;21.40;10.80;;;;;;;22.35;56.73;101198.71;106871;1264;73334;-96
2023/05/15 05:00:32;;;;;;;19.90;9.70;;;;;;;22.85;49.66;101200.80;107132;1264;61711;-94
2023/05/15 05:03:02;;;;;;;28.60;11.80;;;;;;;23.42;47.69;101200.57;107924;1269;61126;-91
2023/05/15 05:05:31;;;;;;;18.30;9.20;;;;;;;23.95;45.36;101197.23;108272;1262;74471;-95
2023/05/15 05:07:59;;;;;;;15.60;8.20;;;;;;;24.43;42.63;101196.39;108470;1262;64772;-95
2023/05/15 05:10:28;;;;;;;14.90;8.10;;;;;;;24.86;41.72;101199.30;108891;1265;73708;-95
2023/05/15 05:13:01;;;;;;;12.50;6.70;;;;;;;25.39;40.13;101204.23;108924;1256;61183;-94
2023/05/15 05:15:40;;;;;;;12.00;6.80;;;;;;;25.83;38.80;101207.83;109036;1251;58984;-91
2023/05/15 05:18:10;;;;;;;11.20;5.90;;;;;;;26.16;37.08;101199.34;108598;1258;74748;-95
2023/05/15 05:20:40;;;;;;;9.90;5.80;;;;;;;26.38;36.12;101198.35;108387;1258;64472;-96
2023/05/15 05:23:22;;;;;;;10.10;6.00;;;;;;;26.65;35.09;101196.77;108616;1259;71966;-93
2023/05/15 05:25:49;;;;;;;9.30;4.80;;;;;;;26.92;35.03;101200.80;108181;1259;61483;-94
2023/05/15 05:28:17;;;;;;;12.20;4.90;;;;;;;27.14;33.98;101203.41;108014;1259;62775;-95
2023/05/15 05:31:06;;;;;;;8.60;5.50;;;;;;;27.39;33.35;101204.98;108169;1259;73369;-95
2023/05/15 05:33:51;;;;;;;10.40;5.40;;;;;;;27.74;32.92;101203.35;108407;1259;66020;-94
2023/05/15 05:36:58;;;;;;;10.00;5.60;;;;;;;28.01;32.20;101202.38;108718;1261;72318;-95
2023/05/15 05:44:27;;;;;;;9.40;4.90;;;;;;;28.69;31.05;101207.80;108586;1255;61973;-95
2023/05/15 05:47:26;;;;;;;13.00;5.90;;;;;;;28.81;30.67;101209.17;108593;1260;78714;-92
2023/05/15 05:50:07;;;;;;;8.50;5.00;;;;;;;28.93;30.87;101207.55;108988;1260;62673;-92
2023/05/15 05:52:35;;;;;;;10.80;5.40;;;;;;;29.10;30.80;101207.83;108780;1260;73742;-93
2023/05/15 05:55:06;;;;;;;8.80;5.00;;;;;;;29.36;30.42;101212.56;109036;1259;61524;-94
2023/05/15 06:01:21;;;;;;;11.70;4.90;;;;;;;29.78;29.52;101203.55;108596;1259;72608;31
2023/05/15 06:07:37;;;;;;;12.10;5.50;;;;;;;30.25;29.23;101201.81;108420;1264;71985;-96
2023/05/15 06:14:46;;;;;;;8.10;4.80;;;;;;;30.83;27.78;101199.23;108379;1264;59008;31
2023/05/15 06:21:44;;;;;;;9.10;4.80;;;;;;;31.05;27.71;101197.90;84995;1295;62597;-95
2023/05/15 06:24:33;;;;;;;5.90;4.30;;;;;;;31.24;27.42;101193.50;108300;1266;71876;-96
2023/05/15 06:28:24;;;;;;;8.20;5.00;;;;;;;31.43;26.97;101188.84;108687;1265;59574;-95
2023/05/15 06:31:51;;;;;;;9.00;4.00;;;;;;;31.60;26.41;101194.97;108666;1261;60354;31
2023/05/15 06:41:40;;;;;;;10.20;4.50;;;;;;;32.43;25.79;101179.48;104422;1267;71206;-95
2023/05/15 06:44:36;;;;;;;;;;;;;;;32.63;25.53;101179.21;107921;1270;59397;-95
2023/05/15 06:47:19;;;;;;;6.80;3.50;;;;;;;32.73;24.82;101180.89;106795;1270;62523;-96
2023/05/15 06:49:48;;;;;;;6.60;3.40;;;;;;;32.73;25.04;101178.66;107677;1270;75972;-96
2023/05/15 06:52:28;;;;;;;9.70;3.60;;;;;;;32.89;25.28;101177.05;108261;1270;64909;-95
2023/05/15 06:55:46;;;;;;;14.30;4.40;;;;;;;33.14;24.68;101176.40;108232;1264;71389;-94
2023/05/15 06:59:10;;;;;;;9.30;3.80;;;;;;;33.33;24.45;101173.23;108213;1267;59138;-95
2023/05/15 07:02:41;;;;;;;4.60;3.60;;;;;;;33.58;23.74;101171.81;108411;1267;61049;-96
2023/05/15 07:12:52;;;;;;;5.30;3.70;;;;;;;34.46;23.01;101166.94;107338;1264;71449;31
2023/05/15 07:25:45;;;;;;;6.60;2.70;;;;;;;34.81;20.99;101155.02;103740;1268;976851;-94
2023/05/15 07:31:39;;;;;;;9.40;2.80;;;;;;;35.07;20.90;101153.38;108477;1260;60870;31
2023/05/15 07:48:32;;;;;;;8.90;3.10;;;;;;;36.34;19.96;101145.17;106464;1286;607584;-93
2023/05/15 07:51:14;;;;;;;6.60;1.90;;;;;;;37.10;18.87;101142.11;107347;1255;163499;-93
2023/05/15 07:53:41;;;;;;;2.90;1.90;;;;;;;37.04;18.06;101143.11;107461;1259;59110;-94
2023/05/15 07:56:12;;;;;;;3.10;2.10;;;;;;;36.97;17.38;101142.27;107915;1263;64315;-93
2023/05/15 07:58:40;;;;;;;7.10;1.90;;;;;;;36.84;17.59;101142.44;108708;1258;64727;-96
2023/05/15 08:01:15;;;;;;;7.40;3.20;;;;;;;36.74;17.99;101136.24;107886;1259;64818;-94
2023/05/15 08:03:42;;;;;;;2.10;1.90;;;;;;;36.52;17.40;101132.38;107306;1260;62505;-94
2023/05/15 08:06:11;;;;;;;2.40;1.40;;;;;;;36.41;17.69;101132.55;107797;1260;61374;-96
2023/05/15 08:08:50;;;;;;;6.10;2.90;;;;;;;36.46;17.65;101132.02;108206;1260;74411;-93
2023/05/15 08:11:21;;;;;;;3.00;2.20;;;;;;;36.52;17.80;101129.81;108660;1258;65780;-95
2023/05/15 20:06:13;;;;;;;14.80;9.80;;;;;;;16.94;81.07;101068.23;108858;1263;616841;-91
2023/05/15 20:18:32;;;;;;;25.10;10.60;;;;;;;17.06;80.74;101080.34;111411;1237;63047;-94
2023/05/15 20:21:37;;;;;;;16.70;10.70;;;;;;;17.02;81.60;101080.69;111919;1242;73499;31
2023/05/15 20:28:17;;;;;;;23.70;11.80;;;;;;;16.85;82.48;101085.55;111889;1239;60161;-92
2023/05/15 20:31:39;;;;;;;20.10;11.90;;;;;;;16.72;83.04;101078.08;111893;1240;71198;-94
2023/05/15 20:34:48;;;;;;;23.20;12.10;;;;;;;16.60;83.45;101080.77;111528;1239;63871;-93
2023/05/15 20:37:41;;;;;;;32.60;13.00;;;;;;;16.47;83.47;101083.21;111621;1238;72365;-94
2023/05/15 20:41:41;;;;;;;22.60;12.00;;;;;;;16.34;84.04;101082.95;111058;1237;62751;31
2023/05/15 20:45:38;;;;;;;23.80;10.50;;;;;;;16.18;84.66;101080.14;111656;1237;59057;-92
2023/05/15 20:49:19;;;;;;;22.50;10.90;;;;;;;16.06;84.83;101081.19;111494;1236;72922;-93
2023/05/15 20:52:19;;;;;;;15.50;10.00;;;;;;;16.00;85.17;101083.61;112440;1232;65351;-92
2023/05/15 20:55:18;;;;;;;23.80;11.10;;;;;;;15.95;85.54;101085.92;111999;1232;72488;-95
2023/05/15 20:57:49;;;;;;;17.70;11.30;;;;;;;15.91;85.60;101085.83;111158;1238;59525;-94
2023/05/15 21:00:16;;;;;;;21.50;10.40;;;;;;;15.89;85.51;101079.45;111415;1238;60149;-93
2023/05/15 21:02:50;;;;;;;21.30;12.60;;;;;;;15.86;85.62;101082.69;111268;1238;74046;-94
2023/05/15 21:05:19;;;;;;;19.00;11.10;;;;;;;15.82;85.53;101081.66;110240;1238;62837;-95
2023/05/15 21:07:46;;;;;;;20.40;10.60;;;;;;;15.77;85.95;101081.83;110487;1243;73870;-96
2023/05/15 21:10:15;;;;;;;24.40;11.00;;;;;;;15.71;86.67;101086.26;109349;1240;60249;-95
2023/05/15 21:12:42;;;;;;;21.60;10.30;;;;;;;15.66;87.04;101084.39;109636;1239;61213;-93
2023/05/15 21:15:10;;;;;;;19.10;9.70;;;;;;;15.60;87.63;101086.02;109036;1239;73104;-96
2023/05/15 21:17:37;;;;;;;18.40;10.30;;;;;;;15.55;88.00;101090.96;109217;1240;63758;-92
2023/05/15 21:20:10;;;;;;;21.80;9.10;;;;;;;15.50;87.28;101092.74;109227;1240;73629;-93
2023/05/15 21:22:44;;;;;;;15.00;8.40;;;;;;;15.47;85.50;101091.23;110147;1239;60047;-92
2023/05/15 21:25:12;;;;;;;16.70;9.50;;;;;;;15.47;85.12;101088.89;111494;1240;60094;-93
2023/05/15 21:27:43;;;;;;;18.50;10.40;;;;;;;15.49;86.21;101092.61;110114;1241;72820;-90
2023/05/15 21:30:10;;;;;;;19.00;9.40;;;;;;;15.50;87.07;101089.20;110775;1242;64769;-89
2023/05/15 21:32:38;;;;;;;22.10;10.00;;;;;;;15.50;87.92;101092.42;110284;1242;73831;-90
2023/05/15 21:35:06;;;;;;;9.90;8.30;;;;;;;15.42;87.63;101097.20;109679;1240;59814;-92
2023/05/15 21:37:33;;;;;;;15.10;9.10;;;;;;;15.31;87.94;101104.88;109753;1241;60071;-94
2023/05/15 21:40:00;;;;;;;12.50;9.20;;;;;;;15.19;87.52;101109.30;108862;1242;72748;-93
2023/05/15 21:42:30;;;;;;;21.50;9.80;;;;;;;15.07;87.37;101110.09;109952;1233;64745;-92
2023/05/15 21:45:06;;;;;;;16.30;9.50;;;;;;;14.96;87.18;101101.05;110556;1234;73805;-93
2023/05/15 21:47:36;;;;;;;20.40;9.80;;;;;;;14.91;87.24;101101.17;109938;1232;61923;-92
2023/05/15 21:50:05;;;;;;;9.80;8.70;;;;;;;14.88;87.33;101099.33;109978;1238;60387;-92
2023/05/15 21:52:34;;;;;;;17.50;9.20;;;;;;;14.85;87.40;101098.78;109926;1233;72175;-92
2023/05/15 21:55:02;;;;;;;14.30;9.50;;;;;;;14.86;87.18;101102.13;110227;1233;64108;-93
2023/05/15 21:57:29;;;;;;;15.50;9.30;;;;;;;14.84;86.78;101100.28;109627;1240;73315;-93
2023/05/15 21:59:56;;;;;;;13.80;9.30;;;;;;;14.84;86.59;101097.13;109810;1238;60880;-94
2023/05/15 22:02:24;;;;;;;11.10;9.00;;;;;;;14.82;86.97;101098.33;110110;1233;60269;-91
2023/05/15 22:04:51;;;;;;;12.60;9.50;;;;;;;14.80;87.03;101098.86;110402;1234;73930;-92
2023/05/15 22:07:19;;;;;;;17.60;8.70;;;;;;;14.76;86.85;101101.92;112351;1235;64226;-94
2023/05/15 22:09:47;;;;;;;12.80;9.80;;;;;;;14.73;86.57;101105.63;110517;1234;71710;-94
2023/05/15 22:12:14;;;;;;;18.20;9.60;;;;;;;14.69;86.17;101106.42;110650;1233;60833;-92
2023/05/15 22:14:42;;;;;;;16.20;10.80;;;;;;;14.66;86.60;101106.15;110659;1233;61234;-93
2023/05/15 22:17:27;;;;;;;16.10;10.20;;;;;;;14.60;86.64;101107.57;111204;1234;72985;-90
2023/05/15 22:20:05;;;;;;;18.90;10.10;;;;;;;14.56;86.95;101106.13;110375;1234;64755;-89
2023/05/15 22:22:34;;;;;;;15.80;11.20;;;;;;;14.50;86.85;101104.89;111841;1233;74122;-90
2023/05/15 22:25:01;;;;;;;16.40;10.30;;;;;;;14.47;86.39;101105.65;112163;1233;61800;-89
2023/05/15 22:27:42;;;;;;;19.60;10.10;;;;;;;14.44;86.58;101105.12;112529;1234;62248;-94
2023/05/15 22:30:10;;;;;;;21.00;10.40;;;;;;;14.43;86.20;101107.11;112327;1233;72968;-91
2023/05/15 22:32:39;;;;;;;17.80;10.50;;;;;;;14.43;85.99;101104.18;111870;1238;65885;-92
2023/05/15 22:35:08;;;;;;;17.40;10.00;;;;;;;14.43;86.10;101107.34;109583;1234;72151;-94
2023/05/15 22:37:37;;;;;;;15.70;10.80;;;;;;;14.43;86.51;101106.42;109599;1236;61875;-92
2023/05/15 22:40:06;;;;;;;14.60;9.40;;;;;;;14.45;86.44;101104.36;109646;1238;59710;-92
2023/05/15 22:42:33;;;;;;;12.00;8.20;;;;;;;14.47;86.51;101102.64;109403;1235;73675;-91
2023/05/15 22:45:02;;;;;;;15.50;7.40;;;;;;;14.49;86.14;101099.00;108825;1239;63472;-92
2023/05/15 22:47:30;;;;;;;11.00;7.10;;;;;;;14.51;84.63;101098.16;109876;1233;72924;-91
2023/05/15 22:49:58;;;;;;;15.00;8.60;;;;;;;14.54;83.64;101097.27;111315;1233;60236;-95
2023/05/15 22:52:25;;;;;;;16.60;8.60;;;;;;;14.58;83.25;101095.61;109709;1234;60066;-91
2023/05/15 22:54:52;;;;;;;17.10;9.70;;;;;;;14.62;84.00;101095.66;109653;1234;72889;-90
2023/05/15 22:57:19;;;;;;;14.70;9.30;;;;;;;14.65;85.42;101093.67;109841;1233;63877;-90
2023/05/15 22:59:46;;;;;;;14.80;9.60;;;;;;;14.67;86.30;101092.67;109996;1238;72703;-91
2023/05/15 23:02:15;;;;;;;13.60;8.70;;;;;;;14.66;86.48;101094.70;110328;1234;61621;-90
2023/05/15 23:04:43;;;;;;;16.10;8.50;;;;;;;14.63;86.40;101092.06;110303;1233;60147;-89
2023/05/15 23:07:09;;;;;;;11.90;8.50;;;;;;;14.60;85.43;101089.48;109430;1233;74029;-91
2023/05/15 23:09:36;;;;;;;15.50;8.40;;;;;;;14.56;84.21;101087.98;109245;1235;64720;-92
2023/05/15 23:12:04;;;;;;;14.30;9.60;;;;;;;14.54;84.14;101087.41;109259;1237;72530;-90
2023/05/15 23:14:33;;;;;;;11.80;8.50;;;;;;;14.51;85.08;101087.73;109220;1238;60220;-91
2023/05/15 23:17:00;;;;;;;13.50;9.00;;;;;;;14.49;86.13;101085.59;108990;1239;61791;-92
2023/05/15 23:19:27;;;;;;;18.10;8.60;;;;;;;14.48;86.99;101085.67;109443;1234;73183;-91
2023/05/15 23:21:55;;;;;;;14.70;9.00;;;;;;;14.47;87.72;101089.26;109220;1237;64742;-91
2023/05/15 23:24:31;;;;;;;14.30;9.80;;;;;;;14.47;88.11;101088.95;109338;1235;72539;-91
2023/05/15 23:26:58;;;;;;;14.70;8.80;;;;;;;14.47;88.18;101088.91;109098;1235;60959;-93
2023/05/15 23:29:25;;;;;;;18.10;9.10;;;;;;;14.47;88.20;101083.82;109088;1239;60559;-93
2023/05/15 23:31:55;;;;;;;18.70;10.90;;;;;;;14.49;87.86;101083.86;111962;1233;73755;-92
2023/05/15 23:34:22;;;;;;;19.40;11.60;;;;;;;14.50;86.80;101083.59;109254;1236;63862;-92
2023/05/15 23:36:50;;;;;;;21.00;12.10;;;;;;;14.51;86.05;101081.23;109082;1236;73309;-92
2023/05/15 23:39:17;;;;;;;23.10;12.10;;;;;;;14.51;85.41;101078.23;109129;1234;60931;-91
2023/05/15 23:41:43;;;;;;;24.50;12.30;;;;;;;14.51;84.88;101075.77;108900;1232;60526;-90
2023/05/15 23:44:11;;;;;;;17.30;10.90;;;;;;;14.50;84.42;101079.18;109116;1234;74032;-94
2023/05/15 23:46:37;;;;;;;23.80;14.20;;;;;;;14.49;85.29;101081.88;109172;1236;63136;-92
2023/05/15 23:49:04;;;;;;;17.40;11.30;;;;;;;14.47;86.37;101084.67;109191;1235;73606;-88
2023/05/15 23:51:33;;;;;;;17.50;10.90;;;;;;;14.44;87.53;101086.47;109856;1233;60593;-89
2023/05/15 23:54:00;;;;;;;16.30;10.50;;;;;;;14.41;88.13;101087.25;110516;1234;59983;-92
2023/05/15 23:56:28;;;;;;;19.70;9.40;;;;;;;14.36;88.07;101091.46;110998;1233;73001;-92
2023/05/15 23:58:55;;;;;;;18.20;10.10;;;;;;;14.29;88.24;101091.19;112098;1234;63589;-93
